x

Destruction Island, Wa (desw1) Weather Station

6:00 - Fri 26th Dec 2014 All times are PST. -8 hours from GMT.

  • Wind
    11mph, 13mph gusts
  • Aire Temp 47°f
  • Sea Pressure 1026.5mb
  • Destruction Island, Wa
  • Destruction Island, Wa

More Historic Weather Station data

Upgrade to MSW Pro to gain access to the past 30 days of data for over 8000 Wavebouys and Weather Stations around the globe.

Join Pro

Comparision Forecast

View Surf forecast
   
vie 12/26 6:00 11 13 mph 1026.5mb 47f
5:00 11 13 mph 1026.8mb 47f
4:00 10 11 mph 1026.6mb 48f
3:00 11 14 mph 1026.7mb 48f
2:00 9 11 mph 1026.3mb 48f
1:00 10 11 mph 1026.6mb 48f
12:00 9 11 mph 1027.3mb 47f
11:00 3 5 mph 1027.7mb 47f
10:00 5 7 mph 1027.7mb 46f
9:00 7 8 mph 1027mb 45f
8:00 6 8 mph 1026.9mb 45f
7:00 6 7 mph 1026.6mb 45f
6:00 8 10 mph 1026.4mb 45f
5:00 10 11 mph 1026.2mb 45f
4:00 11 13 mph 1026.2mb 45f
3:00 13
mph
1026mb 44f
2:00 8 9 mph 1025.6mb 46f
1:00 10 11 mph 1025.2mb 46f
12:00 10 11 mph 1024.9mb 46f
jue 12/25 11:00 10
mph
1024.9mb 46f
10:00 8 9 mph 1024.9mb 47f
9:00 3
mph
1024.9mb 46f
8:00 5 6 mph 1024.4mb 47f
7:00 6
mph
1024.1mb 47f
6:00 6
mph
1023.9mb 48f
5:00 5 6 mph 1023.7mb 49f
4:00 11
mph
1023.4mb 49f
3:00 13 14 mph 1023.1mb 49f
2:00 14 18 mph 1022.6mb 49f
1:00 14 16 mph 1022.7mb 50f
12:00 9 10 mph 1022.9mb 49f
11:00 21 23 mph 1022.8mb 50f
10:00 18 21 mph 1022.5mb 49f
9:00 24 26 mph 1021.6mb 49f
8:00 30 32 mph 1021.4mb 49f
7:00 23 26 mph 1020.8mb 49f
6:00 22 25 mph 1020.6mb 49f
5:00 30 33 mph 1020.1mb 49f
4:00 32 34 mph 1020mb 50f
3:00 34 37 mph 1019.3mb 49f
2:00 33 37 mph 1018.8mb 50f
1:00 32 38 mph 1018.6mb 50f
12:00 25 29 mph 1018.1mb 49f
mié 12/24 11:00 31 33 mph 1017.9mb 50f
10:00 23 28 mph 1017.4mb 50f
9:00 17 21 mph 1017mb 49f
8:00 33 34 mph 1016.2mb 50f
7:00 33 36 mph 1015.6mb 50f
6:00 32 34 mph 1015.1mb 49f
5:00 36 39 mph 1014.9mb 49f
4:00 36 38 mph 1014.7mb 49f
3:00 28 31 mph 1014.2mb 49f
2:00 22 23 mph 1014.2mb 47f
1:00 3 6 mph 1014.1mb 46f
12:00 5 6 mph 1014mb 44f
11:00 9 10 mph 1014.1mb 45f
10:00 10 11 mph 1014.4mb 43f
9:00 5 6 mph 1013.8mb 43f
8:00 5
mph
1013.6mb 43f
7:00 6 7 mph 1013.4mb 43f
6:00 9 10 mph 1013.5mb 43f
5:00 17 21 mph 1014mb 45f
4:00 6 7 mph 1014.5mb 46f
3:00 15 17 mph 1015.2mb 48f
2:00 17 18 mph 1015.2mb 50f
1:00 22 24 mph 1016.2mb 50f
12:00 11 13 mph 1017mb 47f
mar 12/23 11:00 13 14 mph 1017.7mb 48f
10:00 10 11 mph 1018.1mb 47f
9:00 6 7 mph 1018.9mb 47f
8:00 11 13 mph 1018.9mb 48f
7:00 7 8 mph 1019.6mb 49f
6:00 11 13 mph 1019.6mb 49f
5:00 5 7 mph 1020mb 49f
4:00 3 5 mph 1020.6mb 49f
3:00 6 7 mph 1020.6mb 49f
2:00 9 10 mph 1020.2mb 48f
1:00 2 3 mph 1021.3mb 48f
12:00 8 9 mph 1021.3mb 49f
11:00 29 31 mph 1020.9mb 50f
10:00 28 30 mph 1021.2mb 50f
9:00 26 29 mph 1020.9mb 50f
8:00 29 32 mph 1020.7mb 49f
7:00 31 32 mph 1021mb 49f
6:00 29 32 mph 1021.4mb 48f
5:00 30 34 mph 1021.6mb 47f
4:00 32 34 mph 1022.1mb 46f